createdAt,value
2022-08-19T00:04:42.261Z,99.92
2022-08-19T00:09:44.774Z,100.00
2022-08-19T00:14:48.643Z,99.78
2022-08-19T00:19:51.129Z,100.00
2022-08-19T00:24:53.592Z,100.00
2022-08-19T00:29:59.814Z,100.00
2022-08-19T00:35:05.476Z,100.00
2022-08-19T00:40:09.301Z,97.64
2022-08-19T00:45:15.825Z,98.36
2022-08-19T00:50:21.566Z,100.00
2022-08-19T00:55:28.983Z,100.00
2022-08-19T01:00:33.608Z,98.89
2022-08-19T01:05:37.145Z,96.02
2022-08-19T01:10:46.647Z,97.83
2022-08-19T01:15:56.928Z,96.39
2022-08-19T01:21:04.456Z,95.74
2022-08-19T01:26:08.260Z,99.43
2022-08-19T01:31:26.414Z,100.00
2022-08-19T01:36:33.080Z,100.00
2022-08-19T01:41:38.674Z,100.00
2022-08-19T01:46:42.051Z,100.00
2022-08-19T01:51:44.619Z,100.00
2022-08-19T01:56:48.829Z,100.00
2022-08-19T02:01:51.405Z,100.00
2022-08-19T02:06:53.928Z,100.00
2022-08-19T02:11:57.989Z,100.00
2022-08-19T02:17:00.461Z,100.00
2022-08-19T02:22:03.115Z,100.00
2022-08-19T02:27:07.248Z,100.00
2022-08-19T02:32:09.950Z,100.00
2022-08-19T02:37:32.612Z,100.00
2022-08-19T02:42:39.217Z,100.00
2022-08-19T02:47:41.771Z,100.00
2022-08-19T02:52:44.251Z,100.00
2022-08-19T02:57:48.293Z,100.00
2022-08-19T03:02:50.755Z,100.00
2022-08-19T03:07:53.259Z,100.00
2022-08-19T03:12:57.119Z,100.00
2022-08-19T03:17:59.819Z,100.00
2022-08-19T03:23:02.892Z,100.00
2022-08-19T03:28:07.409Z,100.00
2022-08-19T03:33:11.302Z,100.00
2022-08-19T03:38:20.733Z,100.00
2022-08-19T03:43:24.597Z,100.00
2022-08-19T03:48:27.084Z,97.77
2022-08-19T03:53:31.683Z,100.00
2022-08-19T03:58:35.539Z,100.00
2022-08-19T04:03:37.978Z,100.00
2022-08-19T04:08:41.495Z,100.00
2022-08-19T04:13:45.662Z,100.00
2022-08-19T04:18:49.701Z,100.00
2022-08-19T04:23:53.496Z,99.80
2022-08-19T04:29:00.310Z,97.11
2022-08-19T04:34:04.901Z,95.75
2022-08-19T04:39:10.650Z,98.32
2022-08-19T04:44:15.169Z,96.91
2022-08-19T04:49:19.407Z,94.93
2022-08-19T04:54:37.157Z,95.40
2022-08-19T04:59:42.972Z,94.80
2022-08-19T05:04:45.434Z,93.71
2022-08-19T05:09:58.966Z,92.67
2022-08-19T05:15:06.914Z,91.93
2022-08-19T05:20:28.616Z,91.20
2022-08-19T05:25:31.260Z,92.73
2022-08-19T05:30:46.729Z,91.55
2022-08-19T05:35:53.555Z,93.82
2022-08-19T05:40:56.039Z,93.31
2022-08-19T05:46:00.285Z,93.11
2022-08-19T05:51:07.141Z,94.53
2022-08-19T05:56:11.538Z,92.92
2022-08-19T06:01:17.953Z,97.19
2022-08-19T06:06:21.407Z,95.52
2022-08-19T06:11:25.706Z,96.82
2022-08-19T06:16:32.542Z,97.42
2022-08-19T06:21:38.127Z,100.00
2022-08-19T06:31:56.193Z,100.00
2022-08-19T06:37:02.012Z,100.00
2022-08-19T06:42:10.327Z,100.00
2022-08-19T06:47:23.487Z,100.00
2022-08-19T06:52:27.840Z,100.00
2022-08-19T06:57:33.566Z,100.00
2022-08-19T07:02:38.517Z,100.00
2022-08-19T07:07:44.096Z,100.00
2022-08-19T07:12:51.264Z,100.00
2022-08-19T07:17:55.221Z,100.00
2022-08-19T07:22:58.241Z,100.00
2022-08-19T07:28:01.615Z,100.00
2022-08-19T07:33:05.647Z,100.00
2022-08-19T07:38:08.412Z,100.00
2022-08-19T07:43:14.231Z,100.00
2022-08-19T07:48:21.787Z,100.00
2022-08-19T07:53:24.259Z,100.00
2022-08-19T07:58:26.845Z,100.00
2022-08-19T08:03:45.129Z,100.00
2022-08-19T08:09:05.175Z,100.00
2022-08-19T08:14:29.510Z,100.00
2022-08-19T08:19:35.158Z,100.00
2022-08-19T08:24:37.989Z,95.31
2022-08-19T08:29:43.060Z,94.61
2022-08-19T08:34:47.386Z,92.40
2022-08-19T08:39:55.372Z,93.27
2022-08-19T08:45:01.596Z,94.31
2022-08-19T08:50:09.646Z,91.95
2022-08-19T08:55:16.282Z,90.45
2022-08-19T09:00:25.058Z,88.30
2022-08-19T09:05:42.116Z,90.33
2022-08-19T09:10:55.475Z,91.08
2022-08-19T09:16:02.503Z,88.23
2022-08-19T09:21:07.010Z,87.70
2022-08-19T09:26:11.716Z,89.11
2022-08-19T09:31:15.974Z,88.31
2022-08-19T09:36:34.844Z,87.79
2022-08-19T09:41:38.039Z,86.82
2022-08-19T09:46:40.557Z,88.32
2022-08-19T09:51:46.880Z,85.92
2022-08-19T09:56:53.970Z,87.22
2022-08-19T10:01:56.955Z,91.32
2022-08-19T10:07:07.914Z,88.37
2022-08-19T10:12:12.769Z,88.05
2022-08-19T10:17:23.123Z,87.25
2022-08-19T10:22:31.672Z,85.35
2022-08-19T10:27:34.224Z,88.21
2022-08-19T10:32:38.378Z,86.10
2022-08-19T10:37:57.667Z,89.29
2022-08-19T10:43:04.787Z,89.27
2022-08-19T10:48:07.316Z,87.04
2022-08-19T10:53:20.974Z,88.47
2022-08-19T10:58:27.264Z,89.52
2022-08-19T11:03:30.787Z,92.67
2022-08-19T11:08:35.789Z,95.71
2022-08-19T11:13:41.768Z,98.40
2022-08-19T11:18:48.125Z,93.36
2022-08-19T11:23:54.914Z,92.54
2022-08-19T11:28:58.689Z,92.71
2022-08-19T11:34:06.433Z,94.60
2022-08-19T11:39:12.532Z,95.09
2022-08-19T11:44:16.177Z,95.55
2022-08-19T11:49:22.043Z,95.53
2022-08-19T11:54:26.383Z,90.06
2022-08-19T11:59:30.302Z,88.12
2022-08-19T12:04:32.825Z,91.06
2022-08-19T12:09:37.131Z,94.11
2022-08-19T12:14:45.677Z,92.85
2022-08-19T12:19:48.189Z,88.01
2022-08-19T12:24:54.276Z,86.46
2022-08-19T12:29:57.014Z,85.04
2022-08-19T12:34:59.538Z,82.79
2022-08-19T12:40:04.398Z,84.20
2022-08-19T12:45:07.780Z,83.66
2022-08-19T12:50:14.093Z,86.29
2022-08-19T12:55:19.541Z,82.17
2022-08-19T13:00:23.870Z,79.64
2022-08-19T13:05:31.165Z,76.46
2022-08-19T13:10:40.073Z,73.40
2022-08-19T13:15:49.265Z,72.49
2022-08-19T13:20:52.738Z,70.07
2022-08-19T13:26:00.974Z,68.55
2022-08-19T13:31:21.254Z,72.48
2022-08-19T13:36:23.765Z,71.82
2022-08-19T13:41:27.941Z,70.60
2022-08-19T13:46:31.542Z,70.77
2022-08-19T13:51:34.221Z,72.98
2022-08-19T13:56:42.768Z,72.30
2022-08-19T14:01:45.264Z,74.13
2022-08-19T14:06:49.640Z,73.21
2022-08-19T14:11:53.475Z,76.64
2022-08-19T14:16:55.903Z,75.66
2022-08-19T14:21:59.059Z,76.86
2022-08-19T14:27:04.248Z,78.77
2022-08-19T14:32:08.089Z,77.96
2022-08-19T14:37:15.356Z,82.40
2022-08-19T14:42:19.182Z,79.44
2022-08-19T14:47:21.677Z,76.45
2022-08-19T14:52:26.061Z,80.09
2022-08-19T14:57:29.879Z,78.69
2022-08-19T15:02:34.039Z,79.23
2022-08-19T15:07:37.677Z,78.88
2022-08-19T15:12:43.626Z,75.99
2022-08-19T15:17:47.375Z,77.42
2022-08-19T15:22:50.010Z,76.50
2022-08-19T15:27:54.138Z,77.47
2022-08-19T15:32:58.467Z,77.59
2022-08-19T15:38:01.002Z,76.38
2022-08-19T15:43:04.827Z,77.48
2022-08-19T15:48:07.237Z,77.81
2022-08-19T15:53:11.747Z,77.76
2022-08-19T15:58:33.670Z,75.82
2022-08-19T16:03:53.958Z,74.87
2022-08-19T16:08:58.654Z,75.59
2022-08-19T16:14:03.673Z,75.68
2022-08-19T16:19:11.861Z,77.13
2022-08-19T16:24:16.810Z,77.63
2022-08-19T16:29:33.808Z,77.92
2022-08-19T16:34:42.402Z,76.51
2022-08-19T16:39:45.729Z,75.68
2022-08-19T16:44:49.778Z,76.13
2022-08-19T16:49:55.212Z,75.46
2022-08-19T16:54:58.131Z,77.57
2022-08-19T17:00:05.122Z,73.96
2022-08-19T17:05:09.405Z,73.86
2022-08-19T17:10:11.982Z,74.85
2022-08-19T17:15:15.797Z,77.21
2022-08-19T17:20:18.498Z,76.27
2022-08-19T17:25:21.023Z,77.52
2022-08-19T17:30:26.167Z,77.00
2022-08-19T17:35:28.724Z,77.24
2022-08-19T17:40:31.256Z,78.52
2022-08-19T17:45:36.419Z,82.66
2022-08-19T17:50:40.394Z,82.65
2022-08-19T17:55:42.903Z,82.65
2022-08-19T18:00:54.441Z,82.52
2022-08-19T18:05:58.605Z,82.39
2022-08-19T18:11:01.823Z,84.25
2022-08-19T18:16:06.951Z,83.09
2022-08-19T18:21:10.351Z,81.93
2022-08-19T18:26:12.974Z,83.41
2022-08-19T18:31:17.143Z,83.12
2022-08-19T18:36:37.381Z,82.30
2022-08-19T18:42:00.679Z,82.67
2022-08-19T18:47:22.430Z,87.00
2022-08-19T18:52:27.079Z,85.40
2022-08-19T18:57:29.580Z,85.38
2022-08-19T19:02:38.886Z,83.42
2022-08-19T19:07:41.737Z,87.21
2022-08-19T19:12:45.450Z,89.34
2022-08-19T19:17:50.059Z,87.41
2022-08-19T19:22:52.516Z,85.29
2022-08-19T19:27:58.556Z,81.98
2022-08-19T19:33:03.181Z,85.67
2022-08-19T19:38:08.445Z,95.12
2022-08-19T19:43:11.019Z,88.82
2022-08-19T19:48:16.758Z,86.79
2022-08-19T19:53:19.241Z,85.66
2022-08-19T19:58:22.755Z,83.91
2022-08-19T20:03:32.918Z,83.86
2022-08-19T20:08:53.013Z,82.36
2022-08-19T20:13:55.679Z,96.02
2022-08-19T20:19:01.218Z,89.65
2022-08-19T20:24:09.145Z,85.24
2022-08-19T20:29:38.062Z,85.74
2022-08-19T20:34:38.079Z,89.16
2022-08-19T20:39:40.797Z,86.81
2022-08-19T20:44:43.335Z,87.67
2022-08-19T20:49:47.272Z,87.07
2022-08-19T20:54:49.683Z,86.45
2022-08-19T20:59:52.226Z,85.09
2022-08-19T21:04:59.021Z,88.01
2022-08-19T21:10:02.872Z,89.93
2022-08-19T21:15:09.849Z,88.76
2022-08-19T21:20:13.766Z,88.78
2022-08-19T21:25:17.028Z,86.08
2022-08-19T21:30:19.611Z,86.27
2022-08-19T21:35:24.191Z,88.59
2022-08-19T21:40:27.201Z,90.04
2022-08-19T21:45:30.142Z,90.47
2022-08-19T21:50:34.027Z,88.68
2022-08-19T21:55:36.521Z,90.08
2022-08-19T22:00:40.242Z,99.29
2022-08-19T22:05:44.434Z,100.00
2022-08-19T22:10:46.940Z,100.00
2022-08-19T22:15:51.874Z,97.65
2022-08-19T22:20:56.663Z,94.21
2022-08-19T22:25:59.381Z,90.81
2022-08-19T22:31:02.430Z,90.96
2022-08-19T22:36:08.498Z,90.92
2022-08-19T22:41:11.535Z,96.48
2022-08-19T22:46:17.350Z,100.00
2022-08-19T22:51:39.447Z,97.18
2022-08-19T22:56:43.352Z,96.69
2022-08-19T23:01:46.271Z,100.00
2022-08-19T23:06:52.857Z,100.00
2022-08-19T23:11:55.661Z,100.00
2022-08-19T23:16:59.185Z,97.78
2022-08-19T23:22:05.092Z,95.80
2022-08-19T23:27:30.280Z,98.30
2022-08-19T23:32:36.038Z,99.65
2022-08-19T23:37:39.813Z,100.00
2022-08-19T23:42:44.351Z,92.11
2022-08-19T23:47:47.485Z,100.00
2022-08-19T23:52:54.372Z,96.86
2022-08-19T23:57:57.495Z,100.00
